Time;durP1;ratioP1;P1;durP2;ratioP2;P2;SDS_P1;SDS_P2;PMS_P1;PMS_P2;Temp;Humidity;BMP_temperature;BMP_pressure;BME280_temperature;BME280_humidity;BME280_pressure;Samples;Min_cycle;Max_cycle;Signal;HPM_P1;HPM_P2
2021/05/13 00:00:13;;;;;;;;;;;23.20;41.50;;;;;;1569876;74;792;-66
2021/05/13 00:02:15;;;;;;;;;;;23.20;41.60;;;;;;1564537;74;711;-70
2021/05/13 00:04:17;;;;;;;;;;;23.20;41.50;;;;;;1565481;74;801;-67
2021/05/13 00:06:18;;;;;;;;;;;23.20;41.40;;;;;;1569151;74;1100;-67
2021/05/13 00:08:20;;;;;;;;;;;23.20;41.40;;;;;;1562799;74;950;-67
2021/05/13 00:10:23;;;;;;;;;;;23.30;41.50;;;;;;1569113;74;726;-68
2021/05/13 00:14:44;;;;;;;;;;;23.20;41.40;;;;;;1566062;74;851;-68
2021/05/13 00:16:46;;;;;;;;;;;23.30;41.40;;;;;;1561508;74;1164;-67
2021/05/13 00:18:48;;;;;;;;;;;23.20;41.40;;;;;;1569098;74;1934;-67
2021/05/13 00:20:49;;;;;;;;;;;23.20;41.30;;;;;;1562580;74;795;-67
2021/05/13 00:22:51;;;;;;;;;;;23.20;41.30;;;;;;1563146;74;719;-67
2021/05/13 00:24:53;;;;;;;;;;;23.30;41.30;;;;;;1569689;74;714;-68
2021/05/13 00:26:59;;;;;;;;;;;23.20;41.20;;;;;;1562727;74;1210;-68
2021/05/13 00:28:59;;;;;;;;;;;23.20;41.10;;;;;;1566775;74;1181;-67
2021/05/13 00:31:01;;;;;;;;;;;23.20;41.10;;;;;;1560038;74;724;-66
2021/05/13 00:33:03;;;;;;;;;;;23.20;41.10;;;;;;1564990;74;666;-66
2021/05/13 00:35:05;;;;;;;;;;;23.20;41.10;;;;;;1571407;74;710;-66
2021/05/13 00:37:07;;;;;;;;;;;23.20;41.20;;;;;;1561343;74;1946;-66
2021/05/13 00:39:09;;;;;;;;;;;23.30;41.40;;;;;;1557650;74;739;-66
2021/05/13 00:41:11;;;;;;;;;;;23.30;41.40;;;;;;1564913;74;709;-66
2021/05/13 00:43:13;;;;;;;;;;;23.20;41.30;;;;;;1571274;74;797;-67
2021/05/13 00:45:15;;;;;;;;;;;23.30;41.30;;;;;;1563639;74;1063;-66
2021/05/13 00:47:17;;;;;;;;;;;23.30;41.30;;;;;;1567292;74;753;-66
2021/05/13 00:49:20;;;;;;;;;;;23.20;41.30;;;;;;1564231;74;724;-66
2021/05/13 00:51:22;;;;;;;;;;;23.30;41.40;;;;;;1568318;74;730;-66
2021/05/13 00:53:24;;;;;;;;;;;23.20;41.30;;;;;;1562246;74;742;-65
2021/05/13 00:55:26;;;;;;;;;;;23.20;41.30;;;;;;1565313;74;1160;-65
2021/05/13 00:57:28;;;;;;;;;;;23.20;41.20;;;;;;1571738;74;1937;-65
2021/05/13 00:59:30;;;;;;;;;;;23.30;41.40;;;;;;1570667;74;706;-66
2021/05/13 01:03:51;;;;;;;;;;;23.20;41.30;;;;;;1567762;74;859;-66
2021/05/13 01:05:53;;;;;;;;;;;23.30;41.30;;;;;;1564676;74;1115;-66
2021/05/13 01:07:56;;;;;;;;;;;23.20;41.30;;;;;;1572457;74;784;-67
2021/05/13 01:09:58;;;;;;;;;;;23.20;41.30;;;;;;1570855;74;817;-67
2021/05/13 01:12:07;;;;;;;;;;;23.30;41.30;;;;;;1571039;74;734;-67
2021/05/13 01:17:23;;;;;;;;;;;23.20;41.00;;;;;;1527941;75;1254;-65
2021/05/13 01:18:32;;;;;;;;;;;23.30;41.20;;;;;;1529625;74;1927;-67
2021/05/13 01:20:34;;;;;;;;;;;23.20;41.00;;;;;;1563609;74;786;-67
2021/05/13 01:22:35;;;;;;;;;;;23.20;41.10;;;;;;1563296;74;778;-66
2021/05/13 01:24:37;;;;;;;;;;;23.20;41.10;;;;;;1563591;74;821;-65
2021/05/13 01:26:43;;;;;;;;;;;23.30;41.00;;;;;;1557048;74;1122;-66
2021/05/13 01:28:45;;;;;;;;;;;23.30;41.00;;;;;;1558907;74;701;-66
2021/05/13 01:30:48;;;;;;;;;;;23.20;41.00;;;;;;1581099;74;696;-67
2021/05/13 01:32:49;;;;;;;;;;;23.20;40.80;;;;;;1567845;74;777;-66
2021/05/13 01:34:51;;;;;;;;;;;23.20;41.00;;;;;;1561893;74;890;-67
2021/05/13 01:36:53;;;;;;;;;;;23.20;41.00;;;;;;1566669;74;1147;-67
2021/05/13 01:38:57;;;;;;;;;;;23.20;40.80;;;;;;1568613;75;1940;-67
2021/05/13 01:41:01;;;;;;;;;;;23.30;40.90;;;;;;1570462;74;683;-67
2021/05/13 01:43:04;;;;;;;;;;;23.30;40.90;;;;;;1569387;74;789;-67
2021/05/13 01:45:06;;;;;;;;;;;23.30;41.00;;;;;;1571741;74;787;-67
2021/05/13 01:47:08;;;;;;;;;;;23.20;40.80;;;;;;1575465;74;1076;-67
2021/05/13 01:49:17;;;;;;;;;;;23.20;40.90;;;;;;1574955;74;687;-68
2021/05/13 01:51:19;;;;;;;;;;;23.30;41.00;;;;;;1571910;74;774;-66
2021/05/13 01:53:21;;;;;;;;;;;23.20;41.00;;;;;;1581183;74;705;-67
2021/05/13 01:55:23;;;;;;;;;;;23.30;41.10;;;;;;1573476;74;1236;-65
2021/05/13 01:57:25;;;;;;;;;;;23.30;41.10;;;;;;1573296;75;725;-66
2021/05/13 01:59:27;;;;;;;;;;;23.20;41.00;;;;;;1580541;74;781;-66
2021/05/13 02:01:29;;;;;;;;;;;23.20;41.10;;;;;;1574900;74;670;-65
2021/05/13 02:03:31;;;;;;;;;;;23.20;41.00;;;;;;1565449;74;663;-66
2021/05/13 02:07:33;;;;;;;;;;;23.20;41.10;;;;;;1575157;72;217352;-59
2021/05/13 02:09:35;;;;;;;;;;;23.20;41.20;;;;;;1582330;74;1191;-60
2021/05/13 02:11:37;;;;;;;;;;;23.20;41.30;;;;;;1553814;76;774;-59
2021/05/13 02:13:39;;;;;;;;;;;23.20;41.40;;;;;;1550221;76;779;-59
2021/05/13 02:15:40;;;;;;;;;;;23.20;41.30;;;;;;1547579;76;787;-59
2021/05/13 02:17:42;;;;;;;;;;;23.20;41.40;;;;;;1557956;76;1954;-58
2021/05/13 02:19:44;;;;;;;;;;;23.20;41.40;;;;;;1554011;75;1140;-57
2021/05/13 02:21:46;;;;;;;;;;;23.20;41.50;;;;;;1554104;76;775;-55
2021/05/13 02:23:48;;;;;;;;;;;23.20;41.40;;;;;;1552063;76;730;-59
2021/05/13 02:25:50;;;;;;;;;;;23.20;41.30;;;;;;1547661;76;822;-55
2021/05/13 02:27:52;;;;;;;;;;;23.20;41.30;;;;;;1543363;76;777;-55
2021/05/13 02:29:54;;;;;;;;;;;23.20;41.40;;;;;;1543764;75;1114;-59
2021/05/13 02:31:56;;;;;;;;;;;23.20;41.30;;;;;;1540953;75;741;-56
2021/05/13 02:33:58;;;;;;;;;;;23.20;41.30;;;;;;1547289;76;755;-59
2021/05/13 02:36:00;;;;;;;;;;;23.20;41.30;;;;;;1547689;76;907;-59
2021/05/13 02:38:02;;;;;;;;;;;23.20;41.30;;;;;;1545795;76;1932;-59
2021/05/13 02:40:07;;;;;;;;;;;23.20;41.30;;;;;;1545567;75;1070;-59
2021/05/13 02:42:09;;;;;;;;;;;23.20;41.30;;;;;;1543956;76;785;-60
2021/05/13 02:44:11;;;;;;;;;;;23.20;41.30;;;;;;1539681;76;730;-59
2021/05/13 02:46:13;;;;;;;;;;;23.20;41.20;;;;;;1545957;76;789;-59
2021/05/13 02:48:15;;;;;;;;;;;23.20;41.20;;;;;;1541024;76;754;-58
2021/05/13 02:50:16;;;;;;;;;;;23.30;41.30;;;;;;1541291;76;1105;-59
2021/05/13 02:52:18;;;;;;;;;;;23.20;41.00;;;;;;1541409;76;765;-58
2021/05/13 02:54:21;;;;;;;;;;;23.20;41.00;;;;;;1533545;76;1071;-56
2021/05/13 02:56:23;;;;;;;;;;;23.20;41.20;;;;;;1535936;76;812;-59
2021/05/13 02:58:24;;;;;;;;;;;23.20;41.00;;;;;;1546855;76;1939;-58
2021/05/13 03:00:30;;;;;;;;;;;23.20;41.00;;;;;;1549895;76;1137;-56
2021/05/13 03:02:30;;;;;;;;;;;23.20;40.90;;;;;;1540714;76;1670;-60
2021/05/13 03:04:32;;;;;;;;;;;23.20;41.00;;;;;;1545169;76;768;-57
2021/05/13 03:06:36;;;;;;;;;;;23.10;41.10;;;;;;1541893;76;998;-60
2021/05/13 03:08:38;;;;;;;;;;;23.10;41.00;;;;;;1546931;76;813;-60
2021/05/13 03:12:44;;;;;;;;;;;23.20;41.30;;;;;;1547894;75;873;-58
2021/05/13 03:14:46;;;;;;;;;;;23.20;41.20;;;;;;1548788;76;803;-56
2021/05/13 03:16:48;;;;;;;;;;;23.20;41.30;;;;;;1539949;76;789;-59
2021/05/13 03:18:55;;;;;;;;;;;23.20;41.30;;;;;;1542425;75;1918;-58
2021/05/13 03:21:45;;;;;;;;;;;23.20;41.10;;;;;;1540074;75;1190;-59
2021/05/13 03:23:00;;;;;;;;;;;23.20;41.00;;;;;;1524325;76;1374;-57
2021/05/13 03:25:05;;;;;;;;;;;23.20;41.00;;;;;;1548096;75;735;-55
2021/05/13 03:27:15;;;;;;;;;;;23.20;41.00;;;;;;1549938;76;1664;-59
2021/05/13 03:29:15;;;;;;;;;;;23.20;41.00;;;;;;1549398;76;1727;-55
2021/05/13 03:31:17;;;;;;;;;;;23.10;41.00;;;;;;1543865;76;1113;-58
2021/05/13 03:33:19;;;;;;;;;;;23.20;41.00;;;;;;1549259;76;767;-60
2021/05/13 03:35:21;;;;;;;;;;;23.20;40.90;;;;;;1546972;76;784;-58
2021/05/13 03:37:26;;;;;;;;;;;23.20;40.90;;;;;;1541086;76;795;-60
2021/05/13 03:39:27;;;;;;;;;;;23.10;40.80;;;;;;1550126;75;1934;-59
2021/05/13 03:41:29;;;;;;;;;;;23.20;40.90;;;;;;1548636;75;769;-58
2021/05/13 03:43:30;;;;;;;;;;;23.20;40.90;;;;;;1538790;75;777;-60
2021/05/13 03:45:34;;;;;;;;;;;23.20;41.00;;;;;;1544324;75;777;-55
2021/05/13 03:47:35;;;;;;;;;;;23.20;41.10;;;;;;1546329;76;684;-55
2021/05/13 03:49:37;;;;;;;;;;;23.20;41.10;;;;;;1545948;76;1140;-59
2021/05/13 03:51:39;;;;;;;;;;;23.10;41.00;;;;;;1541648;76;763;-59
2021/05/13 03:53:41;;;;;;;;;;;23.10;41.10;;;;;;1544973;76;762;-60
2021/05/13 03:55:47;;;;;;;;;;;23.10;41.00;;;;;;1547222;76;746;-60
2021/05/13 03:57:46;;;;;;;;;;;23.10;41.00;;;;;;1553789;76;1776;-59
2021/05/13 03:59:50;;;;;;;;;;;23.20;41.20;;;;;;1543573;75;1948;-56
2021/05/13 04:02:09;;;;;;;;;;;23.10;41.20;;;;;;1549016;75;766;-58
2021/05/13 04:04:07;;;;;;;;;;;23.10;41.30;;;;;;1548918;75;1579;-59
2021/05/13 04:06:09;;;;;;;;;;;23.10;41.30;;;;;;1553419;75;772;-58
2021/05/13 04:08:11;;;;;;;;;;;23.10;41.30;;;;;;1537488;75;803;-55
2021/05/13 04:10:13;;;;;;;;;;;23.10;41.50;;;;;;1543225;75;1176;-57
2021/05/13 04:12:15;;;;;;;;;;;23.10;41.30;;;;;;1531577;76;764;-57
2021/05/13 04:14:17;;;;;;;;;;;23.10;41.30;;;;;;1541713;76;772;-55
2021/05/13 04:16:26;;;;;;;;;;;23.10;41.30;;;;;;1537843;76;730;-57
2021/05/13 04:18:23;;;;;;;;;;;23.10;41.30;;;;;;1541741;76;1929;-58
2021/05/13 04:20:25;;;;;;;;;;;23.10;41.20;;;;;;1536565;76;1170;-57
2021/05/13 04:22:26;;;;;;;;;;;23.10;41.10;;;;;;1543285;76;728;-60
2021/05/13 04:24:28;;;;;;;;;;;23.10;41.10;;;;;;1537068;75;873;-60
2021/05/13 04:26:30;;;;;;;;;;;23.10;41.20;;;;;;1533720;76;842;-58
2021/05/13 04:28:32;;;;;;;;;;;23.10;41.20;;;;;;1537761;76;731;-60
2021/05/13 04:30:34;;;;;;;;;;;23.10;41.10;;;;;;1545368;76;1048;-57
2021/05/13 04:32:36;;;;;;;;;;;23.10;41.20;;;;;;1538133;76;790;-59
2021/05/13 04:34:38;;;;;;;;;;;23.10;41.20;;;;;;1538443;76;841;-56
2021/05/13 04:36:39;;;;;;;;;;;23.10;41.20;;;;;;1544012;76;679;-60
2021/05/13 04:38:41;;;;;;;;;;;23.10;41.10;;;;;;1545044;76;1931;-60
2021/05/13 04:40:43;;;;;;;;;;;23.10;41.20;;;;;;1540217;76;1164;-60
2021/05/13 04:42:45;;;;;;;;;;;23.10;41.20;;;;;;1542749;76;771;-58
2021/05/13 04:44:47;;;;;;;;;;;23.10;41.30;;;;;;1548350;76;773;-57
2021/05/13 04:46:57;;;;;;;;;;;23.10;41.30;;;;;;1537814;76;763;-57
2021/05/13 04:50:56;;;;;;;;;;;23.10;41.30;;;;;;1540790;75;1135;-60
2021/05/13 04:53:00;;;;;;;;;;;23.00;41.20;;;;;;1544595;76;794;-59
2021/05/13 04:55:01;;;;;;;;;;;23.00;41.10;;;;;;1545652;76;1661;-59
2021/05/13 04:57:03;;;;;;;;;;;23.00;41.10;;;;;;1547031;76;727;-59
2021/05/13 04:59:05;;;;;;;;;;;23.10;41.30;;;;;;1538253;76;1942;-60
2021/05/13 05:01:07;;;;;;;;;;;23.00;41.20;;;;;;1545225;76;1094;-60
2021/05/13 05:03:09;;;;;;;;;;;23.10;41.20;;;;;;1539298;75;790;-58
2021/05/13 05:05:12;;;;;;;;;;;23.10;41.20;;;;;;1549569;76;718;-60
2021/05/13 05:07:14;;;;;;;;;;;23.10;41.30;;;;;;1547201;76;805;-58
2021/05/13 05:09:15;;;;;;;;;;;23.10;41.30;;;;;;1539275;76;805;-58
2021/05/13 05:11:19;;;;;;;;;;;23.00;41.30;;;;;;1538223;75;1121;-59
2021/05/13 05:13:21;;;;;;;;;;;23.10;41.20;;;;;;1537113;76;796;-58
2021/05/13 05:15:23;;;;;;;;;;;23.00;41.20;;;;;;1539648;76;809;-57
2021/05/13 05:17:25;;;;;;;;;;;23.10;41.20;;;;;;1535772;76;726;-56
2021/05/13 05:19:27;;;;;;;;;;;23.00;41.10;;;;;;1541255;76;1943;-59
2021/05/13 05:21:28;;;;;;;;;;;23.10;41.30;;;;;;1535378;76;746;-59
2021/05/13 05:23:30;;;;;;;;;;;23.00;41.20;;;;;;1538474;75;812;-59
2021/05/13 05:25:32;;;;;;;;;;;23.00;41.20;;;;;;1543696;75;811;-59
2021/05/13 05:27:34;;;;;;;;;;;23.10;41.30;;;;;;1538586;75;742;-59
2021/05/13 05:29:36;;;;;;;;;;;23.00;41.10;;;;;;1546055;75;1243;-57
2021/05/13 05:31:38;;;;;;;;;;;23.00;41.00;;;;;;1545560;75;729;-59
2021/05/13 05:33:40;;;;;;;;;;;23.00;41.00;;;;;;1545540;76;749;-57
2021/05/13 05:35:42;;;;;;;;;;;23.10;41.00;;;;;;1540607;76;754;-59
2021/05/13 05:37:43;;;;;;;;;;;23.10;41.00;;;;;;1546619;75;732;-60
2021/05/13 05:39:45;;;;;;;;;;;23.10;41.10;;;;;;1544977;75;1950;-60
2021/05/13 05:41:47;;;;;;;;;;;23.10;41.10;;;;;;1543163;76;795;-59
2021/05/13 05:43:49;;;;;;;;;;;23.10;41.30;;;;;;1551623;76;776;-60
2021/05/13 05:45:51;;;;;;;;;;;23.10;41.20;;;;;;1549516;76;564;-61
2021/05/13 05:47:59;;;;;;;;;;;23.00;41.10;;;;;;1551936;75;764;-60
2021/05/13 05:49:58;;;;;;;;;;;23.00;41.30;;;;;;1544299;75;1639;-60
2021/05/13 05:52:00;;;;;;;;;;;23.10;41.30;;;;;;1546069;76;666;-60
2021/05/13 05:54:02;;;;;;;;;;;23.10;41.30;;;;;;1550371;76;757;-60
2021/05/13 05:56:04;;;;;;;;;;;23.10;41.30;;;;;;1551931;76;766;-60
2021/05/13 05:58:06;;;;;;;;;;;23.00;41.20;;;;;;1548894;76;666;-60
2021/05/13 06:00:09;;;;;;;;;;;23.10;41.40;;;;;;1550541;75;1925;-60
2021/05/13 06:02:10;;;;;;;;;;;23.00;41.20;;;;;;1549030;76;720;-58
2021/05/13 06:04:12;;;;;;;;;;;23.00;41.20;;;;;;1552177;76;713;-60
2021/05/13 06:06:14;;;;;;;;;;;23.10;41.30;;;;;;1545278;76;856;-59
2021/05/13 06:08:16;;;;;;;;;;;23.00;41.00;;;;;;1537548;76;1110;-60
2021/05/13 06:10:18;;;;;;;;;;;23.10;41.00;;;;;;1537977;75;1180;-58
2021/05/13 06:12:20;;;;;;;;;;;23.00;40.80;;;;;;1548361;76;781;-61
2021/05/13 06:14:22;;;;;;;;;;;23.00;40.70;;;;;;1546071;76;814;-61
2021/05/13 06:16:24;;;;;;;;;;;23.00;40.70;;;;;;1550062;76;752;-57
2021/05/13 06:18:26;;;;;;;;;;;23.00;40.60;;;;;;1538763;76;783;-57
2021/05/13 06:20:29;;;;;;;;;;;23.00;40.50;;;;;;1549472;75;1931;-58
2021/05/13 06:22:31;;;;;;;;;;;22.90;40.50;;;;;;1539854;76;774;-56
2021/05/13 06:24:33;;;;;;;;;;;22.90;40.30;;;;;;1550021;76;779;-58
2021/05/13 06:26:35;;;;;;;;;;;23.10;40.50;;;;;;1549925;76;772;-58
2021/05/13 06:28:37;;;;;;;;;;;23.00;40.20;;;;;;1546009;75;806;-58
2021/05/13 06:30:39;;;;;;;;;;;22.90;40.20;;;;;;1552039;75;1187;-57
2021/05/13 06:32:42;;;;;;;;;;;22.90;40.20;;;;;;1548464;76;724;-57
2021/05/13 06:34:44;;;;;;;;;;;22.90;40.10;;;;;;1539002;76;777;-58
2021/05/13 06:36:46;;;;;;;;;;;22.90;40.20;;;;;;1549470;76;776;-56
2021/05/13 06:38:48;;;;;;;;;;;22.90;40.20;;;;;;1548459;76;862;-57
2021/05/13 06:40:50;;;;;;;;;;;22.90;40.20;;;;;;1544935;76;1928;-58
2021/05/13 06:42:51;;;;;;;;;;;22.90;40.30;;;;;;1539913;76;737;-58
2021/05/13 06:44:53;;;;;;;;;;;22.90;40.40;;;;;;1545794;76;708;-58
2021/05/13 06:46:55;;;;;;;;;;;22.90;40.50;;;;;;1552789;76;808;-58
2021/05/13 06:48:57;;;;;;;;;;;22.90;40.40;;;;;;1543457;76;743;-57
2021/05/13 06:50:59;;;;;;;;;;;22.90;40.70;;;;;;1550874;76;1133;-58
2021/05/13 06:53:01;;;;;;;;;;;22.80;40.50;;;;;;1548087;76;774;-56
2021/05/13 06:55:04;;;;;;;;;;;22.80;40.50;;;;;;1546189;76;773;-57
2021/05/13 06:57:06;;;;;;;;;;;22.80;40.50;;;;;;1549553;76;748;-57
2021/05/13 06:59:09;;;;;;;;;;;22.90;40.60;;;;;;1551185;76;825;-58
2021/05/13 07:01:10;;;;;;;;;;;22.80;40.50;;;;;;1548747;75;1909;-56
2021/05/13 07:03:12;;;;;;;;;;;22.80;40.50;;;;;;1546629;76;680;-58
2021/05/13 07:05:14;;;;;;;;;;;22.80;40.40;;;;;;1543077;76;1044;-58
2021/05/13 07:07:18;;;;;;;;;;;22.90;40.50;;;;;;1544358;76;775;-58
2021/05/13 07:09:20;;;;;;;;;;;22.80;40.50;;;;;;1541279;76;842;-57
2021/05/13 07:11:22;;;;;;;;;;;23.00;40.70;;;;;;1538650;76;1146;-58
2021/05/13 07:13:23;;;;;;;;;;;22.80;40.50;;;;;;1538745;76;716;-56
2021/05/13 07:15:25;;;;;;;;;;;22.70;41.20;;;;;;1549122;76;796;-57
2021/05/13 07:17:27;;;;;;;;;;;22.60;41.40;;;;;;1549736;76;694;-57
2021/05/13 07:19:29;;;;;;;;;;;22.60;41.40;;;;;;1545445;75;1947;-57
2021/05/13 07:21:31;;;;;;;;;;;22.70;41.60;;;;;;1549737;76;849;-57
2021/05/13 07:23:33;;;;;;;;;;;22.70;41.60;;;;;;1545945;76;793;-54
2021/05/13 07:25:35;;;;;;;;;;;22.70;41.40;;;;;;1552127;75;802;-55
2021/05/13 07:27:37;;;;;;;;;;;22.70;41.80;;;;;;1540011;76;831;-56
2021/05/13 07:29:39;;;;;;;;;;;22.70;41.90;;;;;;1549230;75;1135;-57
2021/05/13 07:31:40;;;;;;;;;;;22.70;41.30;;;;;;1546125;76;711;-57
2021/05/13 07:33:42;;;;;;;;;;;22.80;41.20;;;;;;1548767;76;684;-54
2021/05/13 07:35:44;;;;;;;;;;;22.70;41.20;;;;;;1545023;76;744;-57
2021/05/13 07:37:46;;;;;;;;;;;22.70;41.50;;;;;;1543852;76;755;-57
2021/05/13 07:39:48;;;;;;;;;;;22.80;41.30;;;;;;1547954;76;1955;-57
2021/05/13 07:41:50;;;;;;;;;;;22.70;41.60;;;;;;1547074;76;607;-54
2021/05/13 07:43:52;;;;;;;;;;;22.70;42.10;;;;;;1551004;76;706;-56
2021/05/13 07:45:54;;;;;;;;;;;22.70;41.80;;;;;;1549882;76;718;-57
2021/05/13 07:47:58;;;;;;;;;;;22.70;41.70;;;;;;1549123;76;722;-55
2021/05/13 07:50:00;;;;;;;;;;;22.70;42.10;;;;;;1540433;76;1130;-56
2021/05/13 07:52:01;;;;;;;;;;;22.60;42.30;;;;;;1550410;76;741;-55
2021/05/13 07:54:04;;;;;;;;;;;22.80;42.00;;;;;;1541326;76;779;-57
2021/05/13 07:56:06;;;;;;;;;;;22.80;41.80;;;;;;1543261;76;689;-57
2021/05/13 07:58:08;;;;;;;;;;;22.80;41.40;;;;;;1551582;76;712;-57
2021/05/13 08:00:10;;;;;;;;;;;22.70;41.40;;;;;;1546130;76;1936;-56
2021/05/13 08:02:12;;;;;;;;;;;22.70;41.20;;;;;;1534864;76;835;-57
2021/05/13 08:04:14;;;;;;;;;;;22.80;41.10;;;;;;1541158;76;683;-58
2021/05/13 08:06:16;;;;;;;;;;;22.80;40.90;;;;;;1544355;73;216047;-58
2021/05/13 08:08:18;;;;;;;;;;;22.80;40.80;;;;;;1576188;74;710;-63
2021/05/13 08:10:19;;;;;;;;;;;22.80;40.90;;;;;;1566548;75;777;-61
2021/05/13 08:12:21;;;;;;;;;;;22.80;40.70;;;;;;1563264;75;764;-62
2021/05/13 08:14:23;;;;;;;;;;;22.90;40.80;;;;;;1564910;75;759;-61
2021/05/13 08:16:25;;;;;;;;;;;22.80;40.50;;;;;;1569570;75;1179;-62
2021/05/13 08:18:27;;;;;;;;;;;23.00;40.60;;;;;;1546803;76;776;-62
2021/05/13 08:20:29;;;;;;;;;;;23.00;40.50;;;;;;1540923;76;1920;-62
2021/05/13 08:22:31;;;;;;;;;;;22.90;40.50;;;;;;1531086;76;746;-62
2021/05/13 08:24:33;;;;;;;;;;;22.90;40.40;;;;;;1525617;76;781;-62
2021/05/13 08:26:35;;;;;;;;;;;23.00;40.30;;;;;;1528309;76;1114;-62
2021/05/13 08:28:37;;;;;;;;;;;22.90;40.20;;;;;;1525871;76;702;-64
2021/05/13 08:30:39;;;;;;;;;;;22.90;40.20;;;;;;1532068;76;726;-66
2021/05/13 08:32:41;;;;;;;;;;;22.90;40.10;;;;;;1528482;76;770;-63
2021/05/13 08:34:42;;;;;;;;;;;22.80;40.10;;;;;;1536063;76;723;-62
2021/05/13 08:36:44;;;;;;;;;;;22.80;40.20;;;;;;1533852;76;1059;-63
2021/05/13 08:38:46;;;;;;;;;;;22.90;40.30;;;;;;1535640;76;761;-62
2021/05/13 08:40:48;;;;;;;;;;;22.90;39.80;;;;;;1525075;76;1941;-63
2021/05/13 08:42:50;;;;;;;;;;;22.80;39.90;;;;;;1535986;76;788;-63
2021/05/13 08:44:52;;;;;;;;;;;22.80;40.00;;;;;;1524022;76;728;-62
2021/05/13 08:46:54;;;;;;;;;;;22.80;40.00;;;;;;1527987;76;1116;-63
2021/05/13 08:48:56;;;;;;;;;;;22.80;40.00;;;;;;1537703;76;772;-63
2021/05/13 08:51:03;;;;;;;;;;;22.90;40.00;;;;;;1526826;76;809;-63
2021/05/13 08:53:05;;;;;;;;;;;22.90;40.00;;;;;;1532276;76;1169;-63
2021/05/13 08:55:07;;;;;;;;;;;22.90;39.70;;;;;;1527022;76;723;-62
2021/05/13 08:57:11;;;;;;;;;;;22.90;39.50;;;;;;1530484;75;1132;-63
2021/05/13 08:59:14;;;;;;;;;;;22.90;39.70;;;;;;1545968;76;1753;-64
2021/05/13 09:01:17;;;;;;;;;;;22.90;39.60;;;;;;1534553;76;1949;-61
2021/05/13 09:03:32;;;;;;;;;;;22.80;39.40;;;;;;1532437;76;762;-62
2021/05/13 09:05:34;;;;;;;;;;;22.90;39.40;;;;;;1525306;76;813;-62
2021/05/13 09:07:35;;;;;;;;;;;22.90;39.10;;;;;;1536896;75;1124;-62
2021/05/13 09:09:37;;;;;;;;;;;22.80;38.90;;;;;;1545292;76;748;-63
2021/05/13 09:11:50;;;;;;;;;;;22.70;38.90;;;;;;1541537;76;723;-63
2021/05/13 09:13:58;;;;;;;;;;;22.70;38.90;;;;;;1543779;76;757;-63
2021/05/13 09:16:02;;;;;;;;;;;22.70;38.90;;;;;;1534918;76;884;-61
2021/05/13 09:18:04;;;;;;;;;;;22.60;38.80;;;;;;1531542;76;1110;-63
2021/05/13 09:20:06;;;;;;;;;;;22.60;38.60;;;;;;1539198;76;1913;-65
2021/05/13 09:22:10;;;;;;;;;;;22.60;38.10;;;;;;1533433;76;730;-66
2021/05/13 09:24:12;;;;;;;;;;;22.50;38.40;;;;;;1534042;76;719;-65
2021/05/13 09:26:15;;;;;;;;;;;22.60;38.50;;;;;;1521091;76;1110;-65
2021/05/13 09:28:19;;;;;;;;;;;22.60;38.60;;;;;;1536598;76;720;-64
2021/05/13 09:30:22;;;;;;;;;;;22.60;38.60;;;;;;1529904;76;1787;-65
2021/05/13 09:32:24;;;;;;;;;;;22.70;38.70;;;;;;1530558;76;683;-65
2021/05/13 09:34:27;;;;;;;;;;;22.70;38.60;;;;;;1532227;76;785;-64
2021/05/13 09:36:29;;;;;;;;;;;22.80;38.60;;;;;;1532619;76;1229;-65
2021/05/13 09:38:31;;;;;;;;;;;22.80;38.60;;;;;;1518127;77;866;-65
2021/05/13 09:40:35;;;;;;;;;;;22.90;38.80;;;;;;1533298;76;1952;-65
2021/05/13 09:42:37;;;;;;;;;;;22.90;38.80;;;;;;1541910;76;802;-65
2021/05/13 09:44:39;;;;;;;;;;;22.90;38.80;;;;;;1515824;76;862;-66
2021/05/13 09:46:41;;;;;;;;;;;22.90;38.80;;;;;;1532193;76;1133;-64
2021/05/13 09:48:47;;;;;;;;;;;22.90;38.60;;;;;;1533936;76;768;-66
2021/05/13 09:50:49;;;;;;;;;;;23.00;38.60;;;;;;1530999;76;698;-65
2021/05/13 09:52:53;;;;;;;;;;;22.90;38.70;;;;;;1522776;76;752;-65
2021/05/13 09:55:12;;;;;;;;;;;22.90;38.70;;;;;;1537356;76;1780;-62
2021/05/13 09:57:14;;;;;;;;;;;22.90;38.60;;;;;;1528388;76;1653;-65
2021/05/13 09:59:20;;;;;;;;;;;22.80;38.40;;;;;;1507281;77;844;-63
2021/05/13 10:01:22;;;;;;;;;;;22.90;38.60;;;;;;1529123;76;1917;-64
2021/05/13 10:03:24;;;;;;;;;;;22.90;38.60;;;;;;1525104;76;748;-64
2021/05/13 10:05:26;;;;;;;;;;;22.80;38.40;;;;;;1534128;76;768;-61
2021/05/13 10:07:28;;;;;;;;;;;22.80;38.50;;;;;;1528531;76;1137;-60
2021/05/13 10:09:31;;;;;;;;;;;22.80;38.40;;;;;;1523240;76;795;-63
2021/05/13 10:11:33;;;;;;;;;;;22.80;38.40;;;;;;1531669;76;1043;-63
2021/05/13 10:13:35;;;;;;;;;;;22.80;38.30;;;;;;1541301;76;812;-64
2021/05/13 10:15:43;;;;;;;;;;;22.70;38.40;;;;;;1526649;76;788;-65
2021/05/13 10:17:45;;;;;;;;;;;22.70;38.20;;;;;;1540801;76;1188;-64
2021/05/13 10:19:48;;;;;;;;;;;22.70;38.20;;;;;;1539091;76;705;-62
2021/05/13 10:21:50;;;;;;;;;;;22.70;38.30;;;;;;1530872;76;1936;-65
2021/05/13 10:23:53;;;;;;;;;;;22.60;38.20;;;;;;1525689;76;691;-64
2021/05/13 10:25:55;;;;;;;;;;;22.60;38.10;;;;;;1526968;76;704;-62
2021/05/13 10:27:57;;;;;;;;;;;22.60;38.10;;;;;;1531479;76;1096;-65
2021/05/13 10:30:00;;;;;;;;;;;22.50;38.10;;;;;;1530470;76;693;-64
2021/05/13 10:32:03;;;;;;;;;;;22.60;38.20;;;;;;1532147;76;716;-64
2021/05/13 10:34:07;;;;;;;;;;;22.50;38.40;;;;;;1533966;76;709;-64
2021/05/13 10:36:09;;;;;;;;;;;22.50;38.50;;;;;;1528532;76;1680;-65
2021/05/13 10:38:13;;;;;;;;;;;22.50;38.50;;;;;;1527842;76;808;-64
2021/05/13 10:40:25;;;;;;;;;;;22.50;38.70;;;;;;1522645;76;1688;-65
2021/05/13 10:42:30;;;;;;;;;;;22.50;38.80;;;;;;1533991;76;1926;-64
2021/05/13 10:44:36;;;;;;;;;;;22.50;38.80;;;;;;1519235;76;712;-64
2021/05/13 10:46:38;;;;;;;;;;;22.50;38.90;;;;;;1533093;76;1127;-64
2021/05/13 10:48:40;;;;;;;;;;;22.50;39.00;;;;;;1536956;76;669;-65
2021/05/13 10:50:46;;;;;;;;;;;22.50;39.10;;;;;;1529519;76;745;-64
2021/05/13 10:52:48;;;;;;;;;;;22.50;39.10;;;;;;1535579;76;767;-64
2021/05/13 10:54:50;;;;;;;;;;;22.50;39.00;;;;;;1527776;76;749;-65
2021/05/13 10:56:51;;;;;;;;;;;22.50;39.00;;;;;;1540423;75;1135;-66
2021/05/13 10:59:02;;;;;;;;;;;22.50;39.10;;;;;;1512479;77;989;-64
2021/05/13 11:01:06;;;;;;;;;;;22.50;39.10;;;;;;1535202;76;1900;-65
2021/05/13 11:03:09;;;;;;;;;;;22.40;39.10;;;;;;1523231;76;1937;-65
2021/05/13 11:05:36;;;;;;;;;;;22.40;39.10;;;;;;1534391;76;2031;-64
2021/05/13 11:07:34;;;;;;;;;;;22.40;39.10;;;;;;1531884;76;1680;-65
2021/05/13 11:09:47;;;;;;;;;;;22.40;39.10;;;;;;1526251;76;784;-64
2021/05/13 11:12:07;;;;;;;;;;;22.30;39.20;;;;;;1530424;76;851;-64
2021/05/13 11:14:11;;;;;;;;;;;22.40;39.00;;;;;;1526846;76;755;-66
2021/05/13 11:16:31;;;;;;;;;;;22.30;39.00;;;;;;1535637;76;1539;-63
2021/05/13 11:18:34;;;;;;;;;;;22.20;38.60;;;;;;1529870;76;812;-64
2021/05/13 11:20:39;;;;;;;;;;;22.20;39.10;;;;;;1527895;76;708;-63
2021/05/13 11:22:42;;;;;;;;;;;22.20;39.50;;;;;;1532171;76;1920;-63
2021/05/13 11:24:44;;;;;;;;;;;22.20;39.60;;;;;;1533987;76;1831;-64
2021/05/13 11:26:46;;;;;;;;;;;22.30;39.60;;;;;;1532099;76;1160;-64
2021/05/13 11:28:50;;;;;;;;;;;22.30;39.90;;;;;;1533714;76;736;-63
2021/05/13 11:30:55;;;;;;;;;;;22.30;39.70;;;;;;1532037;76;1503;-63
2021/05/13 11:32:57;;;;;;;;;;;22.40;39.70;;;;;;1538520;76;705;-63
2021/05/13 11:34:59;;;;;;;;;;;22.40;39.60;;;;;;1526410;76;782;-65
2021/05/13 11:37:01;;;;;;;;;;;22.40;39.70;;;;;;1526856;76;1139;-63
2021/05/13 11:39:09;;;;;;;;;;;22.50;39.40;;;;;;1540426;76;766;-63
2021/05/13 11:41:07;;;;;;;;;;;22.50;39.10;;;;;;1539158;76;1923;-65
2021/05/13 11:43:20;;;;;;;;;;;22.50;39.40;;;;;;1536755;76;734;-62
2021/05/13 11:45:22;;;;;;;;;;;22.50;39.40;;;;;;1522965;76;743;-62
2021/05/13 11:47:32;;;;;;;;;;;22.50;39.30;;;;;;1526710;76;1150;-63
2021/05/13 11:49:36;;;;;;;;;;;22.60;39.30;;;;;;1522902;76;766;-64
2021/05/13 11:51:38;;;;;;;;;;;22.50;38.70;;;;;;1531111;76;748;-63
2021/05/13 11:53:41;;;;;;;;;;;22.50;38.80;;;;;;1532532;76;907;-63
2021/05/13 11:55:43;;;;;;;;;;;22.50;38.90;;;;;;1519809;76;747;-63
2021/05/13 11:57:49;;;;;;;;;;;22.50;39.10;;;;;;1521869;76;1114;-62
2021/05/13 11:59:51;;;;;;;;;;;22.50;39.20;;;;;;1526548;76;713;-63
2021/05/13 12:01:55;;;;;;;;;;;22.50;39.10;;;;;;1531641;76;1930;-63
2021/05/13 12:03:58;;;;;;;;;;;22.60;39.10;;;;;;1528135;76;1869;-66
2021/05/13 12:06:00;;;;;;;;;;;22.60;38.60;;;;;;1532371;76;700;-62
2021/05/13 12:08:08;;;;;;;;;;;22.50;38.80;;;;;;1528851;76;1073;-63
2021/05/13 12:10:10;;;;;;;;;;;22.50;38.90;;;;;;1531326;76;812;-66
2021/05/13 12:12:12;;;;;;;;;;;22.60;39.20;;;;;;1533811;76;755;-63
2021/05/13 12:14:16;;;;;;;;;;;22.50;39.00;;;;;;1509946;77;1007;-63
2021/05/13 12:16:19;;;;;;;;;;;22.60;38.90;;;;;;1532085;76;1743;-66
2021/05/13 12:18:21;;;;;;;;;;;22.50;38.90;;;;;;1533105;76;935;-63
2021/05/13 12:20:23;;;;;;;;;;;22.60;38.90;;;;;;1531946;76;815;-66
2021/05/13 12:22:24;;;;;;;;;;;22.50;38.90;;;;;;1532743;76;1938;-62
2021/05/13 12:24:30;;;;;;;;;;;22.50;38.80;;;;;;1530996;76;763;-62